Time,TemperatureF,DewpointF,PressureIn,WindDirection,WindDirectionDegrees,WindSpeedMPH,WindSpeedGustMPH,Humidity,HourlyPrecipIn,Conditions,Clouds,dailyrainin,SolarRadiationWatts/m^2,SoftwareType,DateUTC
2013-08-05 00:02:00,63.0,55.0,-100.00,NW,326,4.0,8.0,74,0.00,,,0.00,0.000000,,2013-08-05 04:02:00,
2013-08-05 00:12:00,63.0,55.0,-100.00,NW,326,4.0,8.0,74,0.00,,,0.00,0.000000,,2013-08-05 04:12:00,
2013-08-05 00:22:00,63.0,55.0,-100.00,NW,326,4.0,8.0,74,0.00,,,0.00,0.000000,,2013-08-05 04:22:00,
2013-08-05 00:52:00,62.0,54.0,-100.00,NNW,338,6.0,9.0,75,0.00,,,0.00,0.000000,,2013-08-05 04:52:00,
2013-08-05 01:02:00,62.0,54.0,-100.00,NNW,338,6.0,9.0,75,0.00,,,0.00,0.000000,,2013-08-05 05:02:00,
2013-08-05 01:12:00,62.0,54.0,-100.00,NNW,338,6.0,9.0,75,0.00,,,0.00,0.000000,,2013-08-05 05:12:00,
2013-08-05 01:22:00,62.0,54.0,-100.00,NNW,338,6.0,9.0,75,0.00,,,0.00,0.000000,,2013-08-05 05:22:00,
2013-08-05 01:53:00,60.0,53.0,-100.00,NNW,342,7.0,14.0,77,0.00,,,0.00,1.000000,,2013-08-05 05:53:00,
2013-08-05 02:02:00,60.0,53.0,-100.00,NNW,342,7.0,14.0,77,0.00,,,0.00,1.000000,,2013-08-05 06:02:00,
2013-08-05 02:12:00,60.0,53.0,-100.00,NNW,342,7.0,14.0,77,0.00,,,0.00,1.000000,,2013-08-05 06:12:00,
2013-08-05 02:22:00,60.0,53.0,-100.00,NNW,342,7.0,14.0,77,0.00,,,0.00,1.000000,,2013-08-05 06:22:00,
2013-08-05 02:52:00,59.0,53.0,-100.00,NNW,343,6.0,11.0,81,0.00,,,0.00,0.000000,,2013-08-05 06:52:00,
2013-08-05 03:02:00,59.0,53.0,-100.00,NNW,343,6.0,11.0,81,0.00,,,0.00,0.000000,,2013-08-05 07:02:00,
2013-08-05 03:12:00,59.0,53.0,-100.00,NNW,343,6.0,11.0,81,0.00,,,0.00,0.000000,,2013-08-05 07:12:00,
2013-08-05 03:22:00,59.0,53.0,-100.00,NNW,343,6.0,11.0,81,0.00,,,0.00,0.000000,,2013-08-05 07:22:00,
2013-08-05 03:53:00,57.0,52.0,-100.00,NNW,329,4.0,10.0,84,0.00,,,0.00,0.000000,,2013-08-05 07:53:00,
2013-08-05 04:02:00,57.0,52.0,-100.00,NNW,329,4.0,10.0,84,0.00,,,0.00,0.000000,,2013-08-05 08:02:00,
2013-08-05 04:12:00,57.0,52.0,-100.00,NNW,329,4.0,10.0,84,0.00,,,0.00,0.000000,,2013-08-05 08:12:00,
2013-08-05 04:22:00,57.0,52.0,-100.00,NNW,329,4.0,10.0,84,0.00,,,0.00,0.000000,,2013-08-05 08:22:00,
2013-08-05 04:25:00,56.0,52.0,-100.00,NW,319,2.0,7.0,87,0.00,,,0.00,1.000000,,2013-08-05 08:25:00,
2013-08-05 04:55:00,56.0,52.0,-100.00,NW,319,2.0,7.0,87,0.00,,,0.00,1.000000,,2013-08-05 08:55:00,
2013-08-05 05:08:00,56.0,52.0,-100.00,NW,319,2.0,7.0,87,0.00,,,0.00,1.000000,,2013-08-05 09:08:00,
2013-08-05 05:20:00,56.0,52.0,-100.00,NW,319,2.0,7.0,87,0.00,,,0.00,1.000000,,2013-08-05 09:20:00,
2013-08-05 05:25:00,54.0,51.0,-100.00,NW,318,3.0,6.0,90,0.00,,,0.00,1.000000,,2013-08-05 09:25:00,
2013-08-05 05:53:00,54.0,51.0,-100.00,NW,318,3.0,6.0,90,0.00,,,0.00,1.000000,,2013-08-05 09:53:00,
2013-08-05 06:13:00,54.0,51.0,-100.00,NW,318,3.0,6.0,90,0.00,,,0.00,1.000000,,2013-08-05 10:13:00,
2013-08-05 06:18:00,54.0,51.0,-100.00,NW,318,3.0,6.0,90,0.00,,,0.00,1.000000,,2013-08-05 10:18:00,
2013-08-05 07:14:00,57.0,52.0,-100.00,NNW,335,5.0,8.0,84,0.00,,,0.00,9.000000,,2013-08-05 11:14:00,
2013-08-05 07:25:00,62.0,53.0,-100.00,NNW,336,7.0,13.0,73,0.00,,,0.00,102.000000,,2013-08-05 11:25:00,
2013-08-05 07:59:00,62.0,53.0,-100.00,NNW,336,7.0,13.0,73,0.00,,,0.00,102.000000,,2013-08-05 11:59:00,
2013-08-05 08:09:00,62.0,53.0,-100.00,NNW,336,7.0,13.0,73,0.00,,,0.00,102.000000,,2013-08-05 12:09:00,
2013-08-05 08:17:00,62.0,53.0,-100.00,NNW,336,7.0,13.0,73,0.00,,,0.00,102.000000,,2013-08-05 12:17:00,
2013-08-05 09:02:00,66.0,54.0,-100.00,NNW,331,6.0,14.0,65,0.00,,,0.00,284.000000,,2013-08-05 13:02:00,
2013-08-05 09:13:00,66.0,54.0,-100.00,NNW,331,6.0,14.0,65,0.00,,,0.00,284.000000,,2013-08-05 13:13:00,
2013-08-05 09:25:00,69.0,53.0,-100.00,NW,321,7.0,16.0,56,0.00,,,0.00,475.000000,,2013-08-05 13:25:00,
2013-08-05 09:54:00,69.0,53.0,-100.00,NW,321,7.0,16.0,56,0.00,,,0.00,475.000000,,2013-08-05 13:54:00,
2013-08-05 10:06:00,69.0,53.0,-100.00,NW,321,7.0,16.0,56,0.00,,,0.00,475.000000,,2013-08-05 14:06:00,
2013-08-05 10:17:00,69.0,53.0,-100.00,NW,321,7.0,16.0,56,0.00,,,0.00,475.000000,,2013-08-05 14:17:00,
2013-08-05 10:25:00,72.0,52.0,-100.00,NW,314,8.0,18.0,49,0.00,,,0.00,653.000000,,2013-08-05 14:25:00,
2013-08-05 10:54:00,72.0,52.0,-100.00,NW,314,8.0,18.0,49,0.00,,,0.00,653.000000,,2013-08-05 14:54:00,
2013-08-05 11:08:00,72.0,52.0,-100.00,NW,314,8.0,18.0,49,0.00,,,0.00,653.000000,,2013-08-05 15:08:00,
2013-08-05 11:25:00,74.0,51.0,-100.00,NW,309,7.0,14.0,44,0.00,,,0.00,786.000000,,2013-08-05 15:25:00,
2013-08-05 12:12:00,74.0,51.0,-100.00,NW,309,7.0,14.0,44,0.00,,,0.00,786.000000,,2013-08-05 16:12:00,
2013-08-05 12:18:00,74.0,51.0,-100.00,NW,309,7.0,14.0,44,0.00,,,0.00,786.000000,,2013-08-05 16:18:00,
2013-08-05 13:00:00,74.0,47.0,-100.00,WNW,302,8.0,17.0,38,0.00,,,0.00,891.000000,,2013-08-05 17:00:00,
2013-08-05 13:08:00,74.0,47.0,-100.00,WNW,302,8.0,17.0,38,0.00,,,0.00,891.000000,,2013-08-05 17:08:00,
2013-08-05 13:17:00,74.0,47.0,-100.00,WNW,302,8.0,17.0,38,0.00,,,0.00,891.000000,,2013-08-05 17:17:00,
2013-08-05 13:22:00,74.0,47.0,-100.00,WNW,302,8.0,17.0,38,0.00,,,0.00,891.000000,,2013-08-05 17:22:00,
2013-08-05 13:25:00,76.0,49.0,-100.00,NNW,337,7.0,17.0,39,0.00,,,0.00,928.000000,,2013-08-05 17:25:00,
2013-08-05 14:01:00,76.0,49.0,-100.00,NNW,337,7.0,17.0,39,0.00,,,0.00,928.000000,,2013-08-05 18:01:00,
2013-08-05 14:08:00,76.0,49.0,-100.00,NNW,337,7.0,17.0,39,0.00,,,0.00,928.000000,,2013-08-05 18:08:00,
2013-08-05 14:13:00,76.0,49.0,-100.00,NNW,337,7.0,17.0,39,0.00,,,0.00,928.000000,,2013-08-05 18:13:00,
2013-08-05 14:25:00,77.0,48.0,-100.00,NW,310,6.0,17.0,36,0.00,,,0.00,914.000000,,2013-08-05 18:25:00,
2013-08-05 14:54:00,77.0,48.0,-100.00,NW,310,6.0,17.0,36,0.00,,,0.00,914.000000,,2013-08-05 18:54:00,
2013-08-05 15:05:00,77.0,48.0,-100.00,NW,310,6.0,17.0,36,0.00,,,0.00,914.000000,,2013-08-05 19:05:00,
2013-08-05 15:15:00,77.0,48.0,-100.00,NW,310,6.0,17.0,36,0.00,,,0.00,914.000000,,2013-08-05 19:15:00,
2013-08-05 16:09:00,78.0,48.0,-100.00,NW,320,7.0,15.0,35,0.00,,,0.00,839.000000,,2013-08-05 20:09:00,
2013-08-05 16:15:00,78.0,48.0,-100.00,NW,320,7.0,15.0,35,0.00,,,0.00,839.000000,,2013-08-05 20:15:00,
2013-08-05 16:25:00,78.0,47.0,-100.00,NW,322,5.0,12.0,33,0.00,,,0.00,713.000000,,2013-08-05 20:25:00,
2013-08-05 17:03:00,78.0,47.0,-100.00,NW,322,5.0,12.0,33,0.00,,,0.00,713.000000,,2013-08-05 21:03:00,
2013-08-05 17:20:00,78.0,47.0,-100.00,NW,322,5.0,12.0,33,0.00,,,0.00,713.000000,,2013-08-05 21:20:00,
2013-08-05 17:54:00,78.0,47.0,-100.00,WNW,297,5.0,12.0,33,0.00,,,0.00,545.000000,,2013-08-05 21:54:00,
2013-08-05 18:06:00,78.0,47.0,-100.00,WNW,297,5.0,12.0,33,0.00,,,0.00,545.000000,,2013-08-05 22:06:00,
2013-08-05 18:25:00,76.0,47.0,-100.00,NNW,338,5.0,11.0,36,0.00,,,0.00,352.000000,,2013-08-05 22:25:00,
2013-08-05 18:53:00,76.0,47.0,-100.00,NNW,338,5.0,11.0,36,0.00,,,0.00,352.000000,,2013-08-05 22:53:00,
2013-08-05 19:07:00,76.0,47.0,-100.00,NNW,338,5.0,11.0,36,0.00,,,0.00,352.000000,,2013-08-05 23:07:00,
2013-08-05 19:18:00,76.0,47.0,-100.00,NNW,338,5.0,11.0,36,0.00,,,0.00,352.000000,,2013-08-05 23:18:00,
2013-08-05 20:02:00,70.0,50.0,-100.00,WNW,289,2.0,9.0,50,0.00,,,0.00,149.000000,,2013-08-06 00:02:00,
2013-08-05 20:15:00,70.0,50.0,-100.00,WNW,289,2.0,9.0,50,0.00,,,0.00,149.000000,,2013-08-06 00:15:00,
2013-08-05 20:24:00,70.0,50.0,-100.00,WNW,289,2.0,9.0,50,0.00,,,0.00,149.000000,,2013-08-06 00:24:00,